Time;durP1;ratioP1;P1;durP2;ratioP2;P2;SDS_P1;SDS_P2;PMS_P1;PMS_P2;Temp;Humidity;BMP_temperature;BMP_pressure;BME280_temperature;BME280_humidity;BME280_pressure;Samples;Min_cycle;Max_cycle;Signal;HPM_P1;HPM_P2
2021/03/14 00:02:24;;;;;;;16.47;12.23;;;;;;;;;;6350513;22;20439;-92
2021/03/14 00:04:49;;;;;;;18.00;13.77;;;;;;;;;;6348488;22;20416;-90
2021/03/14 00:07:16;;;;;;;21.83;15.37;;;;;;;;;;6350001;22;20856;-90
2021/03/14 00:09:42;;;;;;;24.30;15.20;;;;;;;;;;6348518;22;20403;-90
2021/03/14 00:12:08;;;;;;;19.90;15.10;;;;;;;;;;6349793;22;20435;-90
2021/03/14 00:14:34;;;;;;;23.00;13.90;;;;;;;;;;6350503;22;20900;-90
2021/03/14 00:17:00;;;;;;;23.60;15.70;;;;;;;;;;6348941;22;20962;-90
2021/03/14 00:19:27;;;;;;;20.60;14.40;;;;;;;;;;6350221;22;21262;-90
2021/03/14 00:21:53;;;;;;;22.70;15.07;;;;;;;;;;6355616;22;20403;-90
2021/03/14 00:24:19;;;;;;;19.10;15.10;;;;;;;;;;6350003;22;20506;-89
2021/03/14 00:26:45;;;;;;;15.17;11.83;;;;;;;;;;6348144;22;20473;-90
2021/03/14 00:29:11;;;;;;;15.30;12.27;;;;;;;;;;6349458;22;20414;-89
2021/03/14 00:31:37;;;;;;;18.83;12.67;;;;;;;;;;6346815;22;20409;-90
2021/03/14 00:34:03;;;;;;;18.63;13.27;;;;;;;;;;6348596;22;20435;-90
2021/03/14 00:36:30;;;;;;;19.90;14.10;;;;;;;;;;6347723;22;20414;-90
2021/03/14 00:38:56;;;;;;;19.63;14.38;;;;;;;;;;6349392;22;20187;-90
2021/03/14 00:41:22;;;;;;;21.70;14.50;;;;;;;;;;6347741;22;20308;-89
2021/03/14 00:43:48;;;;;;;19.73;12.93;;;;;;;;;;6350101;22;20404;-90
2021/03/14 00:46:14;;;;;;;20.03;12.97;;;;;;;;;;6348591;22;20490;-89
2021/03/14 00:48:40;;;;;;;16.30;12.47;;;;;;;;;;6349506;22;20514;-89
2021/03/14 00:51:06;;;;;;;17.27;12.90;;;;;;;;;;6346460;22;20470;-89
2021/03/14 00:53:33;;;;;;;16.20;11.70;;;;;;;;;;6347262;22;20404;-90
2021/03/14 00:55:59;;;;;;;21.38;12.10;;;;;;;;;;6350341;22;20406;-90
2021/03/14 00:58:24;;;;;;;18.00;12.93;;;;;;;;;;6348780;22;20181;-90
2021/03/14 01:00:50;;;;;;;18.73;13.07;;;;;;;;;;6350914;22;20505;-90
2021/03/14 01:03:16;;;;;;;21.30;13.33;;;;;;;;;;6353714;22;20485;-90
2021/03/14 01:05:43;;;;;;;23.33;13.47;;;;;;;;;;6347694;22;20407;-90
2021/03/14 01:08:09;;;;;;;22.98;14.15;;;;;;;;;;6346108;22;20457;-90
2021/03/14 01:10:35;;;;;;;23.27;15.37;;;;;;;;;;6349074;22;20175;-90
2021/03/14 01:13:01;;;;;;;24.90;15.20;;;;;;;;;;6348344;22;20418;-90
2021/03/14 01:15:27;;;;;;;22.07;15.87;;;;;;;;;;6349817;22;20179;-90
2021/03/14 01:17:53;;;;;;;21.17;14.63;;;;;;;;;;6348133;22;20501;-90
2021/03/14 01:20:21;;;;;;;23.00;15.23;;;;;;;;;;6348848;22;20179;-90
2021/03/14 01:22:47;;;;;;;19.60;14.55;;;;;;;;;;6346841;22;20408;-90
2021/03/14 01:25:14;;;;;;;27.27;16.25;;;;;;;;;;6350313;22;20225;-90
2021/03/14 01:27:45;;;;;;;29.30;17.92;;;;;;;;;;6347987;22;20203;-90
2021/03/14 01:30:13;;;;;;;27.40;16.88;;;;;;;;;;6349188;22;20179;-90
2021/03/14 01:32:39;;;;;;;25.70;19.02;;;;;;;;;;6348715;22;20178;-91
2021/03/14 01:35:06;;;;;;;24.70;16.55;;;;;;;;;;6347456;22;20182;-90
2021/03/14 01:37:32;;;;;;;21.50;15.95;;;;;;;;;;6349098;22;20183;-90
2021/03/14 01:39:58;;;;;;;18.43;12.63;;;;;;;;;;6348126;22;20198;-90
2021/03/14 01:42:25;;;;;;;16.10;12.87;;;;;;;;;;6349896;22;20409;-91
2021/03/14 01:44:52;;;;;;;17.73;12.50;;;;;;;;;;6347311;22;20405;-91
2021/03/14 01:47:18;;;;;;;18.85;13.20;;;;;;;;;;6347904;22;20260;-90
2021/03/14 01:49:44;;;;;;;20.85;13.93;;;;;;;;;;6347021;22;20183;-90
2021/03/14 01:52:11;;;;;;;17.45;13.55;;;;;;;;;;6347544;22;20186;-91
2021/03/14 01:54:37;;;;;;;18.40;12.82;;;;;;;;;;6347058;22;20232;-91
2021/03/14 01:57:03;;;;;;;16.20;12.25;;;;;;;;;;6348957;22;20180;-91
2021/03/14 01:59:30;;;;;;;19.30;12.65;;;;;;;;;;6347133;22;20173;-90
2021/03/14 02:01:57;;;;;;;17.90;12.48;;;;;;;;;;6347931;22;20179;-90
2021/03/14 02:04:23;;;;;;;17.80;12.10;;;;;;;;;;6347361;22;20188;-91
2021/03/14 02:06:49;;;;;;;17.93;13.10;;;;;;;;;;6349794;22;20198;-91
2021/03/14 02:09:15;;;;;;;20.17;13.60;;;;;;;;;;6348149;22;20402;-91
2021/03/14 02:11:44;;;;;;;30.30;17.27;;;;;;;;;;6349574;22;20411;-90
2021/03/14 02:14:10;;;;;;;23.73;15.65;;;;;;;;;;6353695;22;20401;-92
2021/03/14 02:16:39;;;;;;;21.05;14.77;;;;;;;;;;6345695;22;20569;-91
2021/03/14 02:19:09;;;;;;;19.42;13.82;;;;;;;;;;6348521;22;20206;-91
2021/03/14 02:21:35;;;;;;;23.45;16.10;;;;;;;;;;6348119;22;20175;-91
2021/03/14 02:24:02;;;;;;;24.52;15.65;;;;;;;;;;6348678;22;20173;-91
2021/03/14 02:26:29;;;;;;;24.30;15.15;;;;;;;;;;6346839;22;20176;-91
2021/03/14 02:28:56;;;;;;;24.05;15.30;;;;;;;;;;6348600;22;20179;-91
2021/03/14 02:31:23;;;;;;;21.17;15.00;;;;;;;;;;6347281;22;20177;-90
2021/03/14 02:33:52;;;;;;;26.20;15.95;;;;;;;;;;6349258;22;20178;-91
2021/03/14 02:36:18;;;;;;;26.88;16.15;;;;;;;;;;6347553;22;20171;-91
2021/03/14 02:38:45;;;;;;;26.13;15.88;;;;;;;;;;6349936;22;20192;-90
2021/03/14 02:41:11;;;;;;;23.77;17.02;;;;;;;;;;6348217;22;20201;-91
2021/03/14 02:43:39;;;;;;;23.20;15.50;;;;;;;;;;6349243;22;20179;-91
2021/03/14 02:46:07;;;;;;;24.50;16.95;;;;;;;;;;6347536;22;20187;-92
2021/03/14 02:48:33;;;;;;;28.20;17.83;;;;;;;;;;6350339;22;20230;-93
2021/03/14 02:51:01;;;;;;;24.60;16.33;;;;;;;;;;6349885;22;20175;-89
2021/03/14 02:53:28;;;;;;;24.70;15.35;;;;;;;;;;6350578;22;20183;-90
2021/03/14 02:55:54;;;;;;;21.40;14.45;;;;;;;;;;6349840;22;20178;-91
2021/03/14 02:58:21;;;;;;;18.75;13.63;;;;;;;;;;6349983;22;20703;-91
2021/03/14 03:00:48;;;;;;;20.95;14.32;;;;;;;;;;6351296;22;20188;-91
2021/03/14 03:03:15;;;;;;;24.42;14.13;;;;;;;;;;6350414;22;20175;-91
2021/03/14 03:05:41;;;;;;;21.20;13.65;;;;;;;;;;6351013;22;20176;-91
2021/03/14 03:08:07;;;;;;;20.80;14.13;;;;;;;;;;6349393;22;20207;-91
2021/03/14 03:10:35;;;;;;;24.25;15.13;;;;;;;;;;6350847;22;20185;-91
2021/03/14 03:13:01;;;;;;;19.98;14.13;;;;;;;;;;6348839;22;20799;-92
2021/03/14 03:15:28;;;;;;;23.98;16.30;;;;;;;;;;6351959;22;20175;-92
2021/03/14 03:17:54;;;;;;;21.42;15.00;;;;;;;;;;6348885;22;20178;-91
2021/03/14 03:20:21;;;;;;;20.67;14.20;;;;;;;;;;6348893;22;20185;-92
2021/03/14 03:22:48;;;;;;;22.05;15.60;;;;;;;;;;6347110;22;20197;-92
2021/03/14 03:25:14;;;;;;;28.42;18.60;;;;;;;;;;6350581;22;20174;-91
2021/03/14 03:27:40;;;;;;;37.05;20.25;;;;;;;;;;6349686;22;20253;-91
2021/03/14 03:30:07;;;;;;;30.57;19.13;;;;;;;;;;6350783;22;20379;-91
2021/03/14 03:32:33;;;;;;;25.52;16.23;;;;;;;;;;6348307;22;20422;-92
2021/03/14 03:34:59;;;;;;;21.90;14.87;;;;;;;;;;6353273;22;20798;-92
2021/03/14 03:37:26;;;;;;;29.20;16.27;;;;;;;;;;6350975;22;20440;-92
2021/03/14 03:39:52;;;;;;;22.67;15.85;;;;;;;;;;6350686;22;20403;-92
2021/03/14 03:42:20;;;;;;;20.27;14.90;;;;;;;;;;6350779;22;20180;-92
2021/03/14 03:44:46;;;;;;;21.60;14.70;;;;;;;;;;6348686;22;20429;-92
2021/03/14 03:47:13;;;;;;;21.95;13.90;;;;;;;;;;6349177;22;20209;-92
2021/03/14 03:49:42;;;;;;;19.25;12.95;;;;;;;;;;6348929;22;20172;-91
2021/03/14 03:52:08;;;;;;;17.85;12.10;;;;;;;;;;6351085;22;20173;-92
2021/03/14 03:54:35;;;;;;;20.50;14.93;;;;;;;;;;6349445;22;20175;-92
2021/03/14 03:57:01;;;;;;;24.45;14.07;;;;;;;;;;6350835;22;20203;-92
2021/03/14 03:59:28;;;;;;;24.10;15.68;;;;;;;;;;6348701;22;20180;-92
2021/03/14 04:01:56;;;;;;;26.92;16.95;;;;;;;;;;6350554;22;20182;-92
2021/03/14 04:04:24;;;;;;;22.35;15.85;;;;;;;;;;6350326;22;20174;-92
2021/03/14 04:06:51;;;;;;;23.80;16.02;;;;;;;;;;6354775;22;20181;-93
2021/03/14 04:09:17;;;;;;;22.05;14.50;;;;;;;;;;6348088;22;20525;-93
2021/03/14 04:11:45;;;;;;;21.80;14.98;;;;;;;;;;6350146;22;20178;-93
2021/03/14 04:14:12;;;;;;;25.90;16.40;;;;;;;;;;6347969;22;20654;-93
2021/03/14 04:16:38;;;;;;;27.38;18.10;;;;;;;;;;6349397;22;20486;-93
2021/03/14 04:19:05;;;;;;;32.42;19.73;;;;;;;;;;6349116;22;20177;-93
2021/03/14 04:21:31;;;;;;;28.67;19.75;;;;;;;;;;6348185;22;20176;-93
2021/03/14 04:23:57;;;;;;;35.03;19.10;;;;;;;;;;6349219;22;20178;-94
2021/03/14 04:26:24;;;;;;;28.27;19.20;;;;;;;;;;6346816;22;20180;-93
2021/03/14 04:28:52;;;;;;;33.60;21.50;;;;;;;;;;6349463;22;20203;-93
2021/03/14 04:31:18;;;;;;;34.92;20.10;;;;;;;;;;6348577;22;20179;-92
2021/03/14 04:33:44;;;;;;;32.75;20.95;;;;;;;;;;6350265;22;20181;-93
2021/03/14 04:36:11;;;;;;;31.67;20.70;;;;;;;;;;6346149;22;20184;-93
2021/03/14 04:38:38;;;;;;;29.58;20.40;;;;;;;;;;6348657;22;20198;-93
2021/03/14 04:41:05;;;;;;;34.72;20.50;;;;;;;;;;6349201;22;20180;-93
2021/03/14 04:43:31;;;;;;;26.42;18.23;;;;;;;;;;6349822;22;20173;-93
2021/03/14 04:45:58;;;;;;;30.88;19.35;;;;;;;;;;6347149;22;20203;-92
2021/03/14 04:48:24;;;;;;;33.03;19.20;;;;;;;;;;6348383;22;20205;-93
2021/03/14 04:50:51;;;;;;;30.00;18.55;;;;;;;;;;6347321;22;20177;-93
2021/03/14 04:53:19;;;;;;;30.20;18.55;;;;;;;;;;6349692;22;20176;-93
2021/03/14 04:55:45;;;;;;;35.00;19.58;;;;;;;;;;6347696;22;20174;-93
2021/03/14 04:58:12;;;;;;;30.77;18.20;;;;;;;;;;6349158;22;20196;-93
2021/03/14 05:00:38;;;;;;;32.10;18.90;;;;;;;;;;6349814;22;20178;-92
2021/03/14 05:03:07;;;;;;;29.48;19.17;;;;;;;;;;6348509;22;20545;-93
2021/03/14 05:05:34;;;;;;;29.88;19.92;;;;;;;;;;6347903;22;20188;-92
2021/03/14 05:08:01;;;;;;;32.03;22.00;;;;;;;;;;6344928;22;20195;-92
2021/03/14 05:10:27;;;;;;;31.15;21.77;;;;;;;;;;6347321;22;20197;-92
2021/03/14 05:12:53;;;;;;;31.15;20.45;;;;;;;;;;6346218;22;20178;-93
2021/03/14 05:15:19;;;;;;;35.30;20.88;;;;;;;;;;6349628;22;20232;-92
2021/03/14 05:17:47;;;;;;;31.48;19.35;;;;;;;;;;6348197;22;20178;-93
2021/03/14 05:20:15;;;;;;;31.20;21.42;;;;;;;;;;6347145;22;20204;-92
2021/03/14 05:22:42;;;;;;;33.15;21.83;;;;;;;;;;6344732;22;20179;-92
2021/03/14 05:25:09;;;;;;;36.05;22.08;;;;;;;;;;6346814;22;20179;-92
2021/03/14 05:27:36;;;;;;;26.48;19.13;;;;;;;;;;6345585;22;20201;-93
2021/03/14 05:30:02;;;;;;;39.33;25.15;;;;;;;;;;6348429;22;20178;-92
2021/03/14 05:32:28;;;;;;;46.03;28.75;;;;;;;;;;6346674;22;20174;-92
2021/03/14 05:34:56;;;;;;;34.87;22.57;;;;;;;;;;6348807;22;20179;-94
2021/03/14 05:37:23;;;;;;;32.65;22.23;;;;;;;;;;6347090;22;20431;-93
2021/03/14 05:39:49;;;;;;;39.17;24.95;;;;;;;;;;6349475;22;20182;-93
2021/03/14 05:42:16;;;;;;;37.73;24.13;;;;;;;;;;6349887;22;20171;-92
2021/03/14 05:44:44;;;;;;;32.10;22.95;;;;;;;;;;6347590;22;20422;-92
2021/03/14 05:47:10;;;;;;;40.67;24.75;;;;;;;;;;6347999;22;20201;-92
2021/03/14 05:49:36;;;;;;;39.20;26.67;;;;;;;;;;6347331;22;20240;-92
2021/03/14 05:52:02;;;;;;;44.77;27.50;;;;;;;;;;6348769;22;20411;-92
2021/03/14 05:54:30;;;;;;;45.58;28.23;;;;;;;;;;6347174;22;20401;-93
2021/03/14 05:56:59;;;;;;;35.60;25.25;;;;;;;;;;6347820;22;20202;-93
2021/03/14 05:59:25;;;;;;;38.55;26.33;;;;;;;;;;6350394;22;20206;-92
2021/03/14 06:01:52;;;;;;;51.70;32.25;;;;;;;;;;6349340;22;20178;-92
2021/03/14 06:04:19;;;;;;;44.05;29.85;;;;;;;;;;6346351;22;20176;-92
2021/03/14 06:06:46;;;;;;;37.42;26.02;;;;;;;;;;6347988;22;20225;-91
2021/03/14 06:09:14;;;;;;;35.17;23.70;;;;;;;;;;6348025;22;20173;-91
2021/03/14 06:11:41;;;;;;;31.53;21.93;;;;;;;;;;6350674;22;20807;-91
2021/03/14 06:14:07;;;;;;;32.20;22.50;;;;;;;;;;6346413;22;20433;-91
2021/03/14 06:16:33;;;;;;;39.53;24.75;;;;;;;;;;6348331;22;20180;-92
2021/03/14 06:18:59;;;;;;;30.43;22.50;;;;;;;;;;6347819;22;20173;-92
2021/03/14 06:21:26;;;;;;;37.83;25.27;;;;;;;;;;6349502;22;20435;-92
2021/03/14 06:23:56;;;;;;;36.53;24.63;;;;;;;;;;6349820;22;20410;-92
2021/03/14 06:26:30;;;;;;;39.03;28.80;;;;;;;;;;6348260;22;21084;-92
2021/03/14 06:28:57;;;;;;;43.57;28.50;;;;;;;;;;6349203;22;20455;-91
2021/03/14 06:31:23;;;;;;;40.97;26.63;;;;;;;;;;6347307;22;20401;-91
2021/03/14 06:33:50;;;;;;;35.33;27.80;;;;;;;;;;6348613;22;20188;-92
2021/03/14 06:36:17;;;;;;;37.30;27.43;;;;;;;;;;6347621;22;20176;-90
2021/03/14 06:38:43;;;;;;;42.30;28.93;;;;;;;;;;6349825;22;20407;-90
2021/03/14 06:41:14;;;;;;;29.63;20.00;;;;;;;;;;6347405;22;20407;-91
2021/03/14 06:43:40;;;;;;;31.50;22.73;;;;;;;;;;6349756;22;20407;-91
2021/03/14 06:46:18;;;;;;;33.03;23.07;;;;;;;;;;6347290;22;20413;-90
2021/03/14 06:48:44;;;;;;;35.00;22.97;;;;;;;;;;6346049;22;20470;-91
2021/03/14 06:51:10;;;;;;;36.30;24.33;;;;;;;;;;6346384;22;20403;-91
2021/03/14 06:53:36;;;;;;;35.07;22.77;;;;;;;;;;6348286;22;20405;-91
2021/03/14 06:56:04;;;;;;;35.27;21.77;;;;;;;;;;6344513;22;20407;-92
2021/03/14 06:58:31;;;;;;;26.43;20.83;;;;;;;;;;6345770;22;20441;-91
2021/03/14 07:01:11;;;;;;;30.20;21.83;;;;;;;;;;6347445;22;20414;-91
2021/03/14 07:03:38;;;;;;;27.03;20.27;;;;;;;;;;6348745;22;20422;-92
2021/03/14 07:06:14;;;;;;;31.43;22.60;;;;;;;;;;6345106;22;20426;-90
2021/03/14 07:08:40;;;;;;;33.40;23.87;;;;;;;;;;6347044;22;20446;-91
2021/03/14 07:11:06;;;;;;;33.00;21.20;;;;;;;;;;6346513;22;20964;-91
2021/03/14 07:13:32;;;;;;;30.13;20.80;;;;;;;;;;6347462;22;20411;-90
2021/03/14 07:15:58;;;;;;;23.40;19.27;;;;;;;;;;6347387;22;20437;-91
2021/03/14 07:18:24;;;;;;;32.50;22.33;;;;;;;;;;6347736;22;20738;-91
2021/03/14 07:20:52;;;;;;;28.70;21.17;;;;;;;;;;6348373;22;20399;-90
2021/03/14 07:23:18;;;;;;;31.20;21.77;;;;;;;;;;6347362;22;20403;-89
2021/03/14 07:25:44;;;;;;;33.80;22.20;;;;;;;;;;6347117;22;20494;-89
2021/03/14 07:28:11;;;;;;;28.80;21.53;;;;;;;;;;6345592;22;20447;-90
2021/03/14 07:30:37;;;;;;;26.77;21.03;;;;;;;;;;6347330;22;20414;-90
2021/03/14 07:33:04;;;;;;;29.07;19.93;;;;;;;;;;6345632;22;20419;-92
2021/03/14 07:35:30;;;;;;;27.07;20.03;;;;;;;;;;6349171;22;20403;-91
2021/03/14 07:37:57;;;;;;;26.77;20.30;;;;;;;;;;6346364;22;20407;-91
2021/03/14 07:40:24;;;;;;;28.87;21.50;;;;;;;;;;6348205;22;20399;-91
2021/03/14 07:42:55;;;;;;;32.07;22.40;;;;;;;;;;6346699;22;20403;-90
2021/03/14 07:45:20;;;;;;;31.20;22.87;;;;;;;;;;6348169;22;20396;-90
2021/03/14 07:47:46;;;;;;;30.80;20.17;;;;;;;;;;6346911;22;21072;-91
2021/03/14 07:50:14;;;;;;;23.63;19.53;;;;;;;;;;6349401;22;20478;-92
2021/03/14 07:52:40;;;;;;;24.77;19.90;;;;;;;;;;6352934;22;20411;-91
2021/03/14 07:55:09;;;;;;;29.60;21.10;;;;;;;;;;6350163;22;20404;-92
2021/03/14 07:57:35;;;;;;;26.87;20.53;;;;;;;;;;6349362;22;20412;-91
2021/03/14 08:00:16;;;;;;;24.53;20.13;;;;;;;;;;6351202;22;20449;-92
2021/03/14 08:02:52;;;;;;;24.70;19.70;;;;;;;;;;6349310;22;20412;-92
2021/03/14 08:05:18;;;;;;;26.30;18.27;;;;;;;;;;6346083;22;20413;-90
2021/03/14 08:07:46;;;;;;;22.90;18.40;;;;;;;;;;6344233;22;20449;-93
2021/03/14 08:10:27;;;;;;;23.80;16.60;;;;;;;;;;6343552;22;20408;-92
2021/03/14 08:12:54;;;;;;;21.43;16.83;;;;;;;;;;6344744;22;20424;-92
2021/03/14 08:15:21;;;;;;;22.37;16.17;;;;;;;;;;6343469;22;20405;-92
2021/03/14 08:17:47;;;;;;;18.70;15.70;;;;;;;;;;6343941;22;21178;-92
2021/03/14 08:20:13;;;;;;;21.60;16.50;;;;;;;;;;6345132;22;20414;-91
2021/03/14 08:22:43;;;;;;;21.67;14.70;;;;;;;;;;6348949;22;20401;-92
2021/03/14 08:25:23;;;;;;;23.77;18.30;;;;;;;;;;6349214;22;20445;-92
2021/03/14 08:27:50;;;;;;;19.70;15.13;;;;;;;;;;6350606;22;20443;-91
2021/03/14 08:30:34;;;;;;;18.47;15.33;;;;;;;;;;6348840;22;20403;-92
2021/03/14 08:33:15;;;;;;;18.87;15.00;;;;;;;;;;6349667;22;21006;-92
2021/03/14 08:35:45;;;;;;;19.73;14.70;;;;;;;;;;6342537;22;20767;-92
2021/03/14 08:38:24;;;;;;;16.53;14.33;;;;;;;;;;6349072;22;20408;-92
2021/03/14 08:40:50;;;;;;;16.80;15.07;;;;;;;;;;6347492;22;20407;-92
2021/03/14 08:43:40;;;;;;;15.67;13.90;;;;;;;;;;6348500;22;20457;-92
2021/03/14 08:46:06;;;;;;;15.83;14.13;;;;;;;;;;6348668;22;20429;-91
2021/03/14 08:48:32;;;;;;;15.40;13.30;;;;;;;;;;6349303;22;20459;-91
2021/03/14 08:50:59;;;;;;;15.57;12.33;;;;;;;;;;6347728;22;21053;-93
2021/03/14 08:53:25;;;;;;;15.43;12.63;;;;;;;;;;6348932;22;20443;-94
2021/03/14 08:55:51;;;;;;;14.50;13.10;;;;;;;;;;6348723;22;20406;-91
2021/03/14 08:58:17;;;;;;;13.50;12.10;;;;;;;;;;6350667;22;20403;-91
2021/03/14 09:00:43;;;;;;;15.20;13.70;;;;;;;;;;6347040;22;20465;-91
2021/03/14 09:03:11;;;;;;;13.47;12.00;;;;;;;;;;6348282;22;20510;-91
2021/03/14 09:06:03;;;;;;;17.50;14.47;;;;;;;;;;6348391;22;20415;-90
2021/03/14 09:08:29;;;;;;;15.37;12.60;;;;;;;;;;6345188;22;20478;-90
2021/03/14 09:10:55;;;;;;;13.77;12.37;;;;;;;;;;6340244;22;20411;-93
2021/03/14 09:13:27;;;;;;;13.83;12.43;;;;;;;;;;6346481;22;20792;-92
2021/03/14 09:15:53;;;;;;;13.03;11.73;;;;;;;;;;6345691;22;20410;-94
2021/03/14 09:18:22;;;;;;;14.50;11.43;;;;;;;;;;6340019;22;20991;-92
2021/03/14 09:20:55;;;;;;;13.33;11.40;;;;;;;;;;6341723;22;20414;-91
2021/03/14 09:23:22;;;;;;;11.93;10.73;;;;;;;;;;6342763;22;20407;-92
2021/03/14 09:25:52;;;;;;;11.97;10.57;;;;;;;;;;6346290;22;20483;-95
2021/03/14 09:28:18;;;;;;;11.23;10.13;;;;;;;;;;6343415;22;20854;-92
2021/03/14 09:30:44;;;;;;;10.93;9.60;;;;;;;;;;6345708;22;20413;-94
2021/03/14 09:33:12;;;;;;;11.30;10.17;;;;;;;;;;6349124;22;20440;-94
2021/03/14 09:35:40;;;;;;;11.30;10.20;;;;;;;;;;6353242;22;20408;-94
2021/03/14 09:38:08;;;;;;;10.50;9.43;;;;;;;;;;6353479;22;20467;-93
2021/03/14 09:40:35;;;;;;;11.53;9.73;;;;;;;;;;6356368;22;20399;-95
2021/03/14 09:43:15;;;;;;;10.70;9.60;;;;;;;;;;6350361;22;20406;-95
2021/03/14 09:45:42;;;;;;;9.97;8.93;;;;;;;;;;6352858;22;20414;-94
2021/03/14 09:48:09;;;;;;;10.73;9.50;;;;;;;;;;6348591;22;20466;-94
2021/03/14 09:50:38;;;;;;;10.90;9.80;;;;;;;;;;6350357;22;20399;-93
2021/03/14 09:53:05;;;;;;;9.60;8.70;;;;;;;;;;6352102;22;20411;-95
2021/03/14 09:55:33;;;;;;;10.23;9.10;;;;;;;;;;6348396;22;20403;-92
2021/03/14 09:58:00;;;;;;;9.10;8.20;;;;;;;;;;6339433;22;20442;-95
2021/03/14 10:00:31;;;;;;;9.40;8.17;;;;;;;;;;6350403;22;20422;-95
2021/03/14 10:03:00;;;;;;;6.80;6.20;;;;;;;;;;6353768;22;20489;-93
2021/03/14 10:05:36;;;;;;;7.40;6.13;;;;;;;;;;6354371;22;20398;-96
2021/03/14 10:08:03;;;;;;;8.03;7.33;;;;;;;;;;6353359;22;20519;-94
2021/03/14 10:10:29;;;;;;;7.23;6.63;;;;;;;;;;6351259;22;20437;-93
2021/03/14 10:12:55;;;;;;;8.20;7.40;;;;;;;;;;6349068;22;20456;-94
2021/03/14 10:15:21;;;;;;;8.50;7.30;;;;;;;;;;6349778;22;20403;-95
2021/03/14 10:17:49;;;;;;;6.97;6.37;;;;;;;;;;6352846;22;20407;-94
2021/03/14 10:20:15;;;;;;;6.53;6.03;;;;;;;;;;6349863;22;20476;-93
2021/03/14 10:22:41;;;;;;;9.23;6.80;;;;;;;;;;6347385;22;20408;-93
2021/03/14 10:25:22;;;;;;;7.60;6.70;;;;;;;;;;6349392;22;21108;-94
2021/03/14 10:27:48;;;;;;;6.60;6.00;;;;;;;;;;6357283;22;20480;-95
2021/03/14 10:30:17;;;;;;;8.20;7.00;;;;;;;;;;6349997;22;20407;-93
2021/03/14 10:32:49;;;;;;;7.60;6.50;;;;;;;;;;6353747;22;20419;-94
2021/03/14 10:35:17;;;;;;;5.53;5.07;;;;;;;;;;6352386;22;20431;-94
2021/03/14 10:37:43;;;;;;;6.60;6.00;;;;;;;;;;6352121;22;20402;-92
2021/03/14 10:40:21;;;;;;;6.33;5.83;;;;;;;;;;6350658;22;20446;-95
2021/03/14 10:42:49;;;;;;;6.70;6.10;;;;;;;;;;6351186;22;20413;-94
2021/03/14 10:45:16;;;;;;;6.83;6.33;;;;;;;;;;6353648;22;20468;-94
2021/03/14 10:47:46;;;;;;;7.53;6.70;;;;;;;;;;6325605;22;674490;-95
2021/03/14 10:50:26;;;;;;;6.00;5.37;;;;;;;;;;6349474;22;20178;-96
2021/03/14 10:53:07;;;;;;;5.80;5.30;;;;;;;;;;6355261;22;20475;-94
2021/03/14 10:55:37;;;;;;;6.07;5.47;;;;;;;;;;6354188;22;20411;-95
2021/03/14 10:58:13;;;;;;;7.30;5.30;;;;;;;;;;6354792;22;20410;-94
2021/03/14 11:00:42;;;;;;;5.63;4.93;;;;;;;;;;6353755;22;20404;-95
2021/03/14 11:03:25;;;;;;;6.80;5.63;;;;;;;;;;6353783;22;20489;-95
2021/03/14 11:05:51;;;;;;;6.43;5.60;;;;;;;;;;6348254;22;20404;-95
2021/03/14 11:08:17;;;;;;;5.90;5.40;;;;;;;;;;6353218;22;20450;-94
2021/03/14 11:10:53;;;;;;;5.30;4.80;;;;;;;;;;6355353;22;20482;-94
2021/03/14 11:13:24;;;;;;;5.20;4.80;;;;;;;;;;6356378;22;20418;-94
2021/03/14 11:16:04;;;;;;;4.30;4.00;;;;;;;;;;6353382;22;20409;-93
2021/03/14 11:18:37;;;;;;;4.43;4.13;;;;;;;;;;6359412;22;20405;-93
2021/03/14 11:21:04;;;;;;;5.40;4.53;;;;;;;;;;6359246;22;20735;-95
2021/03/14 11:23:34;;;;;;;7.17;5.03;;;;;;;;;;6328483;22;20421;-94
2021/03/14 11:26:04;;;;;;;7.40;5.03;;;;;;;;;;6358118;22;20407;-94
2021/03/14 11:28:38;;;;;;;5.90;4.83;;;;;;;;;;6362850;22;20433;-94
2021/03/14 11:33:42;;;;;;;5.10;4.60;;;;;;;;;;6360367;22;20423;-94
2021/03/14 11:36:08;;;;;;;6.70;4.90;;;;;;;;;;6350189;22;20411;-96
2021/03/14 11:38:34;;;;;;;5.60;5.20;;;;;;;;;;6354335;22;20803;-94
2021/03/14 11:41:00;;;;;;;5.87;5.33;;;;;;;;;;6353639;22;20477;-91
2021/03/14 11:43:27;;;;;;;5.90;5.43;;;;;;;;;;6352711;22;20991;-96
2021/03/14 11:45:53;;;;;;;6.83;5.00;;;;;;;;;;6352621;22;20407;-94
2021/03/14 11:48:19;;;;;;;5.57;5.07;;;;;;;;;;6352179;22;20454;-94
2021/03/14 11:50:45;;;;;;;4.87;4.47;;;;;;;;;;6355021;22;20411;-93
2021/03/14 11:53:21;;;;;;;6.07;5.47;;;;;;;;;;6349469;22;20444;-94
2021/03/14 11:55:50;;;;;;;5.67;5.17;;;;;;;;;;6352018;22;20888;-94
2021/03/14 12:00:57;;;;;;;5.40;4.90;;;;;;;;;;6344944;22;20427;-94
2021/03/14 12:03:23;;;;;;;6.30;5.50;;;;;;;;;;6346524;22;20410;-94
2021/03/14 12:05:52;;;;;;;4.90;4.43;;;;;;;;;;6349831;22;20414;-96
2021/03/14 12:08:18;;;;;;;5.17;4.67;;;;;;;;;;6348194;22;20459;-93
2021/03/14 12:10:44;;;;;;;5.03;4.63;;;;;;;;;;6350053;22;20438;-92
2021/03/14 12:13:10;;;;;;;5.10;4.60;;;;;;;;;;6348646;22;20500;-96
2021/03/14 12:15:37;;;;;;;4.63;4.23;;;;;;;;;;6348830;22;20496;-95
2021/03/14 12:18:06;;;;;;;6.07;4.20;;;;;;;;;;6351820;22;20413;-94
2021/03/14 12:20:33;;;;;;;4.87;4.47;;;;;;;;;;6351792;22;20444;-95
2021/03/14 12:22:59;;;;;;;5.37;4.40;;;;;;;;;;6349333;22;20410;-95
2021/03/14 12:25:25;;;;;;;5.90;4.50;;;;;;;;;;6347965;22;20434;-96
2021/03/14 12:27:51;;;;;;;6.60;4.20;;;;;;;;;;6353577;22;20449;-95
2021/03/14 12:30:18;;;;;;;4.93;4.53;;;;;;;;;;6353027;22;20408;-93
2021/03/14 12:32:43;;;;;;;5.00;4.57;;;;;;;;;;6350876;22;20563;-95
2021/03/14 12:35:11;;;;;;;6.20;4.70;;;;;;;;;;6350308;22;20477;-93
2021/03/14 12:37:37;;;;;;;5.87;5.37;;;;;;;;;;6352447;22;20407;-94
2021/03/14 12:40:06;;;;;;;5.73;5.23;;;;;;;;;;6349955;22;20449;-95
2021/03/14 12:42:32;;;;;;;5.23;4.73;;;;;;;;;;6351560;22;20486;-94
2021/03/14 12:45:00;;;;;;;5.00;4.60;;;;;;;;;;6351653;22;20399;-96
2021/03/14 12:47:28;;;;;;;4.70;4.30;;;;;;;;;;6354171;22;20431;-96
2021/03/14 12:49:56;;;;;;;5.30;4.80;;;;;;;;;;6348726;22;20407;-95
2021/03/14 12:52:23;;;;;;;5.57;5.07;;;;;;;;;;6353019;22;20431;-94
2021/03/14 12:54:49;;;;;;;6.30;5.47;;;;;;;;;;6352506;22;20447;-92
2021/03/14 12:57:15;;;;;;;6.03;5.53;;;;;;;;;;6351651;22;20456;-95
2021/03/14 12:59:41;;;;;;;6.53;5.83;;;;;;;;;;6354368;22;20438;-94
2021/03/14 13:02:07;;;;;;;5.53;5.03;;;;;;;;;;6354785;22;20480;-95
2021/03/14 13:04:33;;;;;;;7.10;5.13;;;;;;;;;;6352685;22;20411;-91
2021/03/14 13:07:01;;;;;;;6.17;5.57;;;;;;;;;;6349793;22;20411;-95
2021/03/14 13:09:29;;;;;;;6.17;5.00;;;;;;;;;;6354813;22;20450;-94
2021/03/14 13:11:57;;;;;;;7.10;5.43;;;;;;;;;;6350812;22;20413;-94
2021/03/14 13:14:23;;;;;;;5.80;5.40;;;;;;;;;;6353539;22;20483;-93
2021/03/14 13:16:50;;;;;;;5.13;4.70;;;;;;;;;;6355004;22;20422;-94
2021/03/14 13:19:17;;;;;;;7.00;4.60;;;;;;;;;;6357881;22;20403;-94
2021/03/14 13:21:43;;;;;;;5.00;4.33;;;;;;;;;;6354859;22;20427;-96
2021/03/14 13:24:10;;;;;;;5.47;4.97;;;;;;;;;;6321962;22;20437;-93
2021/03/14 13:29:23;;;;;;;6.70;6.00;;;;;;;;;;6353931;22;20926;-94
2021/03/14 13:31:50;;;;;;;5.53;5.00;;;;;;;;;;6354172;22;20405;-94
2021/03/14 13:34:25;;;;;;;6.60;5.93;;;;;;;;;;6356136;22;20425;-96
2021/03/14 13:36:52;;;;;;;6.27;5.67;;;;;;;;;;6356689;22;20694;-95
2021/03/14 13:39:20;;;;;;;6.00;5.40;;;;;;;;;;6354615;22;20423;-94
2021/03/14 13:41:48;;;;;;;5.80;5.20;;;;;;;;;;6354220;22;20410;-95
2021/03/14 13:44:14;;;;;;;6.07;5.57;;;;;;;;;;6352490;22;20763;-92
2021/03/14 13:46:40;;;;;;;5.87;5.27;;;;;;;;;;6345694;22;20435;-94
2021/03/14 13:49:08;;;;;;;5.93;5.40;;;;;;;;;;6355627;22;20459;-94
2021/03/14 13:51:34;;;;;;;5.77;5.17;;;;;;;;;;6352979;22;20468;-92
2021/03/14 13:54:00;;;;;;;6.93;6.13;;;;;;;;;;6350103;22;20498;-96
2021/03/14 13:56:26;;;;;;;6.80;6.20;;;;;;;;;;6348985;22;20420;-92
2021/03/14 13:58:52;;;;;;;6.60;6.00;;;;;;;;;;6352353;22;20407;-92
2021/03/14 14:01:18;;;;;;;6.20;5.70;;;;;;;;;;6350493;22;20778;-95
2021/03/14 14:03:45;;;;;;;5.97;5.37;;;;;;;;;;6351286;22;20420;-96
2021/03/14 14:06:32;;;;;;;6.70;5.80;;;;;;;;;;6354318;22;20929;-94
2021/03/14 14:08:58;;;;;;;6.60;6.10;;;;;;;;;;6350332;22;20890;-94
2021/03/14 14:11:24;;;;;;;6.60;6.00;;;;;;;;;;6351305;22;20412;-92
2021/03/14 14:13:51;;;;;;;6.33;5.73;;;;;;;;;;6350316;22;20405;-92
2021/03/14 14:16:17;;;;;;;15.60;7.80;;;;;;;;;;6350504;22;20927;-93
2021/03/14 14:18:43;;;;;;;6.27;5.47;;;;;;;;;;6349926;22;20923;-92
2021/03/14 14:21:09;;;;;;;6.07;5.07;;;;;;;;;;6356686;22;20411;-95
2021/03/14 14:23:36;;;;;;;9.00;5.40;;;;;;;;;;6353270;22;20438;-94
2021/03/14 14:26:09;;;;;;;5.90;5.17;;;;;;;;;;6350189;22;20548;-96
2021/03/14 14:28:35;;;;;;;5.10;4.60;;;;;;;;;;6351163;22;20836;-95
2021/03/14 14:31:01;;;;;;;8.80;5.37;;;;;;;;;;6352664;22;20424;-93
2021/03/14 14:33:27;;;;;;;7.63;5.90;;;;;;;;;;6350230;22;20415;-93
2021/03/14 14:35:56;;;;;;;6.87;5.30;;;;;;;;;;6352895;22;20403;-95
2021/03/14 14:38:22;;;;;;;7.93;5.23;;;;;;;;;;6350138;22;20437;-92